Airfield :
LOGIN :

Register | Disclaimer

   EN    FR    IT 

 










Legend :    VFR   Marginal VFR   IFR   Intensive IFR   Very Intensive IFR
Visi :
Ceiling :
>= 8 km
>= 3000ft
5 to 8 km
1000 to 3000 ft
1500m to 5 km
500 to 1000 ft
800 to 1500m
200 to 500 ft
< 800m
< 200 ft
Symbols :   Thunderstorms  Fog  Heavy snow  Heavy precipitations  Wind > 20 kt
SIGMETs :     Misc.  Thunderstorms  Icing  Turbulence  Mountain Waves  Volcanic Ashes






- Airport Elevation : 359 ft
- IATA code : BVA


LFOB - Beauvais

CURRENT METAR :
  • 132200Z AUTO VRB01KT 9999 -RA SCT032/// SCT058/// OVC094/// ///TCU 14/13 Q1013 BECMG BKN030

EXPIRED METARs :
  • 132130Z AUTO 23002KT 9999 BKN031/// OVC100/// ///TCU 15/13 Q1013 BECMG BKN030
  • 132100Z AUTO 22003KT 9999 OVC033 15/13 Q1012 NOSIG
  • 132030Z AUTO 23003KT 9999 OVC029/// ///TCU 15/12 Q1012 BECMG BKN030
  • 132000Z AUTO 23002KT 9999 OVC030 15/13 Q1012 NOSIG
  • 131930Z AUTO VRB01KT 9999 BKN029 BKN035 OVC110 15/12 Q1011 NOSIG
  • 131900Z AUTO 29006KT 9999 BKN028 BKN037 OVC110 15/12 Q1011 NOSIG

TAF TAF LFOB
Valid from the 13 at 18:00 until the 14 at 18:00 UTC


131700Z 1318/1418 28010KT 9999 BKN030
BECMG 1319/1321 VRB02KT
PROB40 1400/1404 BKN007
FM140400 09008KT 9999 BKN007 BKN030
TEMPO 1404/1409 2000 RA BR BKN003 BKN050TCU
BECMG 1409/1411 18012KT NSC
BECMG 1417/1418 BKN060CB
ATIS : +33 3 44 11 49 28



MET'MAP, your aeronautical weather chart ! - Copyright ORBIFLY December 2007 - Disclaimer

ORBIFLY MET'MAP TEAM :

Programming & Development : Alexandra Zaïnal
Concept & Development : Baudouin d'Aumeries
Co-Development & Prog : Marc-Olivier Méhu
Technical & hardware support : Manuel Goepfert

Contact : metmap@orbifly.com




SOURCES & CREDITS :

   NOAA